sensor_id;sensor_type;location;lat;lon;timestamp;P1;durP1;ratioP1;P2;durP2;ratioP2
46481;SDS011;32193;51.446;6.792;2022-10-16T00:00:18;9.07;;;4.00;;
46481;SDS011;32193;51.446;6.792;2022-10-16T00:02:44;11.15;;;4.20;;
46481;SDS011;32193;51.446;6.792;2022-10-16T00:05:09;9.45;;;3.83;;
46481;SDS011;32193;51.446;6.792;2022-10-16T00:07:35;10.95;;;3.97;;
46481;SDS011;32193;51.446;6.792;2022-10-16T00:10:01;13.02;;;4.57;;
46481;SDS011;32193;51.446;6.792;2022-10-16T00:12:26;6.60;;;3.53;;
46481;SDS011;32193;51.446;6.792;2022-10-16T00:14:52;12.75;;;4.60;;
46481;SDS011;32193;51.446;6.792;2022-10-16T00:17:18;8.05;;;4.32;;
46481;SDS011;32193;51.446;6.792;2022-10-16T00:19:43;10.80;;;4.22;;
46481;SDS011;32193;51.446;6.792;2022-10-16T00:22:09;14.07;;;3.97;;
46481;SDS011;32193;51.446;6.792;2022-10-16T00:24:36;8.82;;;4.15;;
46481;SDS011;32193;51.446;6.792;2022-10-16T00:27:01;15.60;;;4.15;;
46481;SDS011;32193;51.446;6.792;2022-10-16T00:29:27;10.00;;;4.35;;
46481;SDS011;32193;51.446;6.792;2022-10-16T00:31:53;7.65;;;3.85;;
46481;SDS011;32193;51.446;6.792;2022-10-16T00:34:18;8.05;;;4.43;;
46481;SDS011;32193;51.446;6.792;2022-10-16T00:36:44;14.43;;;4.75;;
46481;SDS011;32193;51.446;6.792;2022-10-16T00:39:09;11.95;;;4.20;;
46481;SDS011;32193;51.446;6.792;2022-10-16T00:41:35;11.15;;;4.10;;
46481;SDS011;32193;51.446;6.792;2022-10-16T00:44:02;12.38;;;3.97;;
46481;SDS011;32193;51.446;6.792;2022-10-16T00:46:48;11.82;;;3.78;;
46481;SDS011;32193;51.446;6.792;2022-10-16T00:49:15;8.27;;;3.80;;
46481;SDS011;32193;51.446;6.792;2022-10-16T00:51:45;9.88;;;4.28;;
46481;SDS011;32193;51.446;6.792;2022-10-16T00:54:16;8.82;;;3.60;;
46481;SDS011;32193;51.446;6.792;2022-10-16T00:56:46;6.82;;;3.70;;
46481;SDS011;32193;51.446;6.792;2022-10-16T00:59:20;8.93;;;3.95;;
46481;SDS011;32193;51.446;6.792;2022-10-16T01:01:52;8.32;;;3.90;;
46481;SDS011;32193;51.446;6.792;2022-10-16T01:04:18;11.00;;;3.83;;
46481;SDS011;32193;51.446;6.792;2022-10-16T01:09:45;15.60;;;4.78;;
46481;SDS011;32193;51.446;6.792;2022-10-16T01:12:38;10.60;;;5.18;;
46481;SDS011;32193;51.446;6.792;2022-10-16T01:18:18;10.27;;;5.03;;
46481;SDS011;32193;51.446;6.792;2022-10-16T01:20:51;10.80;;;5.80;;
46481;SDS011;32193;51.446;6.792;2022-10-16T01:31:39;12.23;;;5.97;;
46481;SDS011;32193;51.446;6.792;2022-10-16T01:36:49;8.80;;;5.18;;
46481;SDS011;32193;51.446;6.792;2022-10-16T01:41:47;9.82;;;5.30;;
46481;SDS011;32193;51.446;6.792;2022-10-16T01:44:18;10.05;;;4.95;;
46481;SDS011;32193;51.446;6.792;2022-10-16T01:46:48;13.65;;;5.25;;
46481;SDS011;32193;51.446;6.792;2022-10-16T01:49:17;12.25;;;4.85;;
46481;SDS011;32193;51.446;6.792;2022-10-16T01:51:45;10.52;;;5.00;;
46481;SDS011;32193;51.446;6.792;2022-10-16T01:54:14;12.07;;;5.20;;
46481;SDS011;32193;51.446;6.792;2022-10-16T01:56:43;11.82;;;5.45;;
46481;SDS011;32193;51.446;6.792;2022-10-16T01:59:21;12.45;;;4.82;;
46481;SDS011;32193;51.446;6.792;2022-10-16T02:01:52;11.23;;;5.65;;
46481;SDS011;32193;51.446;6.792;2022-10-16T02:04:28;9.30;;;5.50;;
46481;SDS011;32193;51.446;6.792;2022-10-16T02:06:57;11.93;;;5.20;;
46481;SDS011;32193;51.446;6.792;2022-10-16T02:09:23;11.25;;;4.47;;
46481;SDS011;32193;51.446;6.792;2022-10-16T02:11:50;10.40;;;4.93;;
46481;SDS011;32193;51.446;6.792;2022-10-16T02:14:18;10.90;;;4.13;;
46481;SDS011;32193;51.446;6.792;2022-10-16T02:16:45;10.70;;;3.70;;
46481;SDS011;32193;51.446;6.792;2022-10-16T02:19:12;10.32;;;5.05;;
46481;SDS011;32193;51.446;6.792;2022-10-16T02:21:44;11.73;;;3.65;;
46481;SDS011;32193;51.446;6.792;2022-10-16T02:29:20;13.25;;;3.95;;
46481;SDS011;32193;51.446;6.792;2022-10-16T02:31:50;7.13;;;3.35;;
46481;SDS011;32193;51.446;6.792;2022-10-16T02:34:18;6.88;;;2.75;;
46481;SDS011;32193;51.446;6.792;2022-10-16T02:36:48;6.53;;;2.47;;
46481;SDS011;32193;51.446;6.792;2022-10-16T02:39:16;8.88;;;2.63;;
46481;SDS011;32193;51.446;6.792;2022-10-16T02:41:43;7.13;;;2.92;;
46481;SDS011;32193;51.446;6.792;2022-10-16T02:44:08;7.35;;;2.33;;
46481;SDS011;32193;51.446;6.792;2022-10-16T02:46:34;7.47;;;2.25;;
46481;SDS011;32193;51.446;6.792;2022-10-16T02:49:00;7.88;;;2.60;;
46481;SDS011;32193;51.446;6.792;2022-10-16T02:51:25;8.38;;;2.28;;
46481;SDS011;32193;51.446;6.792;2022-10-16T02:53:51;7.93;;;2.22;;
46481;SDS011;32193;51.446;6.792;2022-10-16T02:56:17;8.52;;;2.25;;
46481;SDS011;32193;51.446;6.792;2022-10-16T02:58:42;6.30;;;2.05;;
46481;SDS011;32193;51.446;6.792;2022-10-16T03:01:08;7.25;;;2.08;;
46481;SDS011;32193;51.446;6.792;2022-10-16T03:03:34;9.20;;;2.45;;
46481;SDS011;32193;51.446;6.792;2022-10-16T03:06:00;6.63;;;2.10;;
46481;SDS011;32193;51.446;6.792;2022-10-16T03:08:25;6.82;;;2.13;;
46481;SDS011;32193;51.446;6.792;2022-10-16T03:10:51;7.03;;;2.30;;
46481;SDS011;32193;51.446;6.792;2022-10-16T03:13:17;6.80;;;1.90;;
46481;SDS011;32193;51.446;6.792;2022-10-16T03:15:45;8.68;;;2.03;;
46481;SDS011;32193;51.446;6.792;2022-10-16T03:18:10;6.40;;;2.13;;
46481;SDS011;32193;51.446;6.792;2022-10-16T03:20:36;5.93;;;1.80;;
46481;SDS011;32193;51.446;6.792;2022-10-16T03:23:02;7.45;;;2.22;;
46481;SDS011;32193;51.446;6.792;2022-10-16T03:25:28;10.30;;;2.10;;
46481;SDS011;32193;51.446;6.792;2022-10-16T03:27:54;6.40;;;1.80;;
46481;SDS011;32193;51.446;6.792;2022-10-16T03:30:20;7.60;;;2.13;;
46481;SDS011;32193;51.446;6.792;2022-10-16T03:32:45;4.65;;;1.73;;
46481;SDS011;32193;51.446;6.792;2022-10-16T03:35:12;6.00;;;1.98;;
46481;SDS011;32193;51.446;6.792;2022-10-16T03:37:37;10.43;;;1.83;;
46481;SDS011;32193;51.446;6.792;2022-10-16T03:40:03;4.50;;;1.60;;
46481;SDS011;32193;51.446;6.792;2022-10-16T03:42:29;7.22;;;1.60;;
46481;SDS011;32193;51.446;6.792;2022-10-16T03:44:55;6.38;;;1.70;;
46481;SDS011;32193;51.446;6.792;2022-10-16T03:47:21;7.70;;;1.80;;
46481;SDS011;32193;51.446;6.792;2022-10-16T03:49:48;7.15;;;1.75;;
46481;SDS011;32193;51.446;6.792;2022-10-16T03:52:14;6.97;;;1.83;;
46481;SDS011;32193;51.446;6.792;2022-10-16T03:54:40;5.95;;;1.70;;
46481;SDS011;32193;51.446;6.792;2022-10-16T03:57:06;6.80;;;1.58;;
46481;SDS011;32193;51.446;6.792;2022-10-16T03:59:32;6.50;;;1.27;;
46481;SDS011;32193;51.446;6.792;2022-10-16T04:01:58;6.20;;;1.60;;
46481;SDS011;32193;51.446;6.792;2022-10-16T04:04:23;6.60;;;1.65;;
46481;SDS011;32193;51.446;6.792;2022-10-16T04:06:49;5.25;;;1.70;;
46481;SDS011;32193;51.446;6.792;2022-10-16T04:09:15;4.75;;;1.58;;
46481;SDS011;32193;51.446;6.792;2022-10-16T04:11:41;5.43;;;1.40;;
46481;SDS011;32193;51.446;6.792;2022-10-16T04:14:07;6.20;;;1.55;;
46481;SDS011;32193;51.446;6.792;2022-10-16T04:16:33;4.63;;;1.25;;
46481;SDS011;32193;51.446;6.792;2022-10-16T04:18:59;8.75;;;1.58;;
46481;SDS011;32193;51.446;6.792;2022-10-16T04:21:24;4.57;;;1.40;;
46481;SDS011;32193;51.446;6.792;2022-10-16T04:23:50;5.25;;;1.48;;
46481;SDS011;32193;51.446;6.792;2022-10-16T04:26:15;5.93;;;1.67;;
46481;SDS011;32193;51.446;6.792;2022-10-16T04:28:41;5.63;;;1.55;;
46481;SDS011;32193;51.446;6.792;2022-10-16T04:31:06;5.25;;;1.40;;
46481;SDS011;32193;51.446;6.792;2022-10-16T04:33:32;5.65;;;1.63;;
46481;SDS011;32193;51.446;6.792;2022-10-16T04:35:59;9.23;;;1.70;;
46481;SDS011;32193;51.446;6.792;2022-10-16T04:38:26;5.07;;;1.42;;
46481;SDS011;32193;51.446;6.792;2022-10-16T04:40:52;6.18;;;1.65;;
46481;SDS011;32193;51.446;6.792;2022-10-16T04:43:17;5.53;;;1.50;;
46481;SDS011;32193;51.446;6.792;2022-10-16T04:45:43;3.88;;;1.30;;
46481;SDS011;32193;51.446;6.792;2022-10-16T04:48:09;4.30;;;1.48;;
46481;SDS011;32193;51.446;6.792;2022-10-16T04:50:34;10.23;;;2.05;;
46481;SDS011;32193;51.446;6.792;2022-10-16T04:53:00;7.13;;;1.45;;
46481;SDS011;32193;51.446;6.792;2022-10-16T04:55:26;6.72;;;1.50;;
46481;SDS011;32193;51.446;6.792;2022-10-16T04:57:52;8.80;;;1.52;;
46481;SDS011;32193;51.446;6.792;2022-10-16T05:00:17;5.43;;;1.60;;
46481;SDS011;32193;51.446;6.792;2022-10-16T05:02:43;4.05;;;1.60;;
46481;SDS011;32193;51.446;6.792;2022-10-16T05:05:09;6.13;;;1.42;;
46481;SDS011;32193;51.446;6.792;2022-10-16T05:07:35;5.25;;;1.63;;
46481;SDS011;32193;51.446;6.792;2022-10-16T05:10:00;6.68;;;1.67;;
46481;SDS011;32193;51.446;6.792;2022-10-16T05:12:26;9.02;;;1.55;;
46481;SDS011;32193;51.446;6.792;2022-10-16T05:14:52;5.38;;;1.65;;
46481;SDS011;32193;51.446;6.792;2022-10-16T05:17:18;6.38;;;1.60;;
46481;SDS011;32193;51.446;6.792;2022-10-16T05:19:43;5.90;;;1.30;;
46481;SDS011;32193;51.446;6.792;2022-10-16T05:22:09;8.95;;;1.50;;
46481;SDS011;32193;51.446;6.792;2022-10-16T05:24:34;5.22;;;1.60;;
46481;SDS011;32193;51.446;6.792;2022-10-16T05:27:00;4.10;;;1.50;;
46481;SDS011;32193;51.446;6.792;2022-10-16T05:29:25;7.00;;;1.67;;
46481;SDS011;32193;51.446;6.792;2022-10-16T05:31:51;9.90;;;1.95;;
46481;SDS011;32193;51.446;6.792;2022-10-16T05:34:18;5.78;;;1.70;;
46481;SDS011;32193;51.446;6.792;2022-10-16T05:36:44;5.82;;;1.42;;
46481;SDS011;32193;51.446;6.792;2022-10-16T05:39:11;6.25;;;1.40;;
46481;SDS011;32193;51.446;6.792;2022-10-16T05:41:36;6.97;;;1.60;;
46481;SDS011;32193;51.446;6.792;2022-10-16T05:44:05;4.93;;;1.70;;
46481;SDS011;32193;51.446;6.792;2022-10-16T05:46:31;9.60;;;1.75;;
46481;SDS011;32193;51.446;6.792;2022-10-16T05:48:57;4.10;;;1.35;;
46481;SDS011;32193;51.446;6.792;2022-10-16T05:51:23;10.82;;;1.67;;
46481;SDS011;32193;51.446;6.792;2022-10-16T05:53:49;8.88;;;1.90;;
46481;SDS011;32193;51.446;6.792;2022-10-16T05:56:15;4.15;;;1.50;;
46481;SDS011;32193;51.446;6.792;2022-10-16T05:58:41;10.20;;;1.65;;
46481;SDS011;32193;51.446;6.792;2022-10-16T06:01:11;6.53;;;1.45;;
46481;SDS011;32193;51.446;6.792;2022-10-16T06:03:38;4.88;;;1.50;;
46481;SDS011;32193;51.446;6.792;2022-10-16T06:06:15;6.88;;;1.55;;
46481;SDS011;32193;51.446;6.792;2022-10-16T06:08:42;5.97;;;1.60;;
46481;SDS011;32193;51.446;6.792;2022-10-16T06:11:09;6.45;;;1.42;;
46481;SDS011;32193;51.446;6.792;2022-10-16T06:13:37;5.85;;;1.70;;
46481;SDS011;32193;51.446;6.792;2022-10-16T06:16:04;4.97;;;1.35;;
46481;SDS011;32193;51.446;6.792;2022-10-16T06:18:30;4.68;;;1.58;;
46481;SDS011;32193;51.446;6.792;2022-10-16T06:20:56;6.57;;;1.45;;
46481;SDS011;32193;51.446;6.792;2022-10-16T06:23:22;4.95;;;1.90;;
46481;SDS011;32193;51.446;6.792;2022-10-16T06:25:48;7.05;;;1.67;;
46481;SDS011;32193;51.446;6.792;2022-10-16T06:28:14;5.60;;;1.83;;
46481;SDS011;32193;51.446;6.792;2022-10-16T06:30:40;8.73;;;1.65;;
46481;SDS011;32193;51.446;6.792;2022-10-16T06:33:05;5.07;;;1.70;;
46481;SDS011;32193;51.446;6.792;2022-10-16T06:35:31;5.43;;;1.60;;
46481;SDS011;32193;51.446;6.792;2022-10-16T06:37:57;7.88;;;2.05;;
46481;SDS011;32193;51.446;6.792;2022-10-16T06:40:23;6.25;;;1.80;;
46481;SDS011;32193;51.446;6.792;2022-10-16T06:42:49;5.97;;;1.67;;
46481;SDS011;32193;51.446;6.792;2022-10-16T06:45:15;5.60;;;1.80;;
46481;SDS011;32193;51.446;6.792;2022-10-16T06:47:40;6.57;;;3.05;;
46481;SDS011;32193;51.446;6.792;2022-10-16T06:50:06;5.53;;;2.10;;
46481;SDS011;32193;51.446;6.792;2022-10-16T06:52:33;5.15;;;2.00;;
46481;SDS011;32193;51.446;6.792;2022-10-16T06:54:59;8.18;;;1.67;;
46481;SDS011;32193;51.446;6.792;2022-10-16T06:57:24;13.77;;;2.25;;
46481;SDS011;32193;51.446;6.792;2022-10-16T06:59:50;7.90;;;1.73;;
46481;SDS011;32193;51.446;6.792;2022-10-16T07:02:16;7.38;;;1.35;;
46481;SDS011;32193;51.446;6.792;2022-10-16T07:04:42;7.03;;;1.95;;
46481;SDS011;32193;51.446;6.792;2022-10-16T07:07:08;10.02;;;2.03;;
46481;SDS011;32193;51.446;6.792;2022-10-16T07:09:33;6.03;;;1.42;;
46481;SDS011;32193;51.446;6.792;2022-10-16T07:11:59;6.35;;;2.42;;
46481;SDS011;32193;51.446;6.792;2022-10-16T07:14:24;6.15;;;1.60;;
46481;SDS011;32193;51.446;6.792;2022-10-16T07:16:50;7.13;;;1.75;;
46481;SDS011;32193;51.446;6.792;2022-10-16T07:19:16;7.07;;;1.80;;
46481;SDS011;32193;51.446;6.792;2022-10-16T07:21:43;8.43;;;1.55;;
46481;SDS011;32193;51.446;6.792;2022-10-16T07:24:15;5.78;;;1.70;;
46481;SDS011;32193;51.446;6.792;2022-10-16T07:26:42;5.28;;;1.38;;
46481;SDS011;32193;51.446;6.792;2022-10-16T07:29:15;5.47;;;1.60;;
46481;SDS011;32193;51.446;6.792;2022-10-16T07:31:45;7.28;;;1.60;;
46481;SDS011;32193;51.446;6.792;2022-10-16T07:34:12;8.38;;;1.80;;
46481;SDS011;32193;51.446;6.792;2022-10-16T07:36:38;6.07;;;2.60;;
46481;SDS011;32193;51.446;6.792;2022-10-16T07:39:04;6.38;;;2.75;;
46481;SDS011;32193;51.446;6.792;2022-10-16T07:41:30;5.70;;;1.85;;
46481;SDS011;32193;51.446;6.792;2022-10-16T07:43:58;5.90;;;1.92;;
46481;SDS011;32193;51.446;6.792;2022-10-16T07:46:27;7.28;;;3.65;;
46481;SDS011;32193;51.446;6.792;2022-10-16T07:48:53;5.78;;;2.55;;
46481;SDS011;32193;51.446;6.792;2022-10-16T07:51:23;5.35;;;1.67;;
46481;SDS011;32193;51.446;6.792;2022-10-16T07:53:50;5.22;;;1.50;;
46481;SDS011;32193;51.446;6.792;2022-10-16T07:56:16;5.18;;;1.60;;
46481;SDS011;32193;51.446;6.792;2022-10-16T07:58:43;4.53;;;1.80;;
46481;SDS011;32193;51.446;6.792;2022-10-16T08:01:10;4.97;;;1.50;;
46481;SDS011;32193;51.446;6.792;2022-10-16T08:03:38;6.22;;;1.58;;
46481;SDS011;32193;51.446;6.792;2022-10-16T08:06:04;5.85;;;1.80;;
46481;SDS011;32193;51.446;6.792;2022-10-16T08:08:30;7.13;;;1.92;;
46481;SDS011;32193;51.446;6.792;2022-10-16T08:10:55;6.68;;;1.65;;
46481;SDS011;32193;51.446;6.792;2022-10-16T08:13:21;6.18;;;1.73;;
46481;SDS011;32193;51.446;6.792;2022-10-16T08:15:47;6.50;;;2.00;;
46481;SDS011;32193;51.446;6.792;2022-10-16T08:18:14;6.43;;;1.85;;
46481;SDS011;32193;51.446;6.792;2022-10-16T08:20:40;7.80;;;2.00;;
46481;SDS011;32193;51.446;6.792;2022-10-16T08:23:07;6.50;;;1.98;;
46481;SDS011;32193;51.446;6.792;2022-10-16T08:25:35;6.65;;;2.00;;
46481;SDS011;32193;51.446;6.792;2022-10-16T08:28:04;8.10;;;2.47;;
46481;SDS011;32193;51.446;6.792;2022-10-16T08:30:34;8.65;;;2.58;;
46481;SDS011;32193;51.446;6.792;2022-10-16T08:33:00;8.60;;;2.08;;
46481;SDS011;32193;51.446;6.792;2022-10-16T08:35:26;9.23;;;1.67;;
46481;SDS011;32193;51.446;6.792;2022-10-16T08:37:52;6.63;;;1.85;;
46481;SDS011;32193;51.446;6.792;2022-10-16T08:40:19;6.78;;;1.70;;
46481;SDS011;32193;51.446;6.792;2022-10-16T08:42:48;8.20;;;2.33;;
46481;SDS011;32193;51.446;6.792;2022-10-16T08:51:08;6.28;;;1.77;;
46481;SDS011;32193;51.446;6.792;2022-10-16T08:53:40;9.50;;;1.95;;
46481;SDS011;32193;51.446;6.792;2022-10-16T08:56:13;13.38;;;2.28;;
46481;SDS011;32193;51.446;6.792;2022-10-16T08:58:39;7.15;;;1.58;;
46481;SDS011;32193;51.446;6.792;2022-10-16T09:01:10;5.18;;;1.30;;
46481;SDS011;32193;51.446;6.792;2022-10-16T09:19:54;8.20;;;1.48;;
46481;SDS011;32193;51.446;6.792;2022-10-16T09:22:22;6.15;;;1.23;;
46481;SDS011;32193;51.446;6.792;2022-10-16T09:24:53;6.00;;;1.60;;
46481;SDS011;32193;51.446;6.792;2022-10-16T09:27:24;7.55;;;1.70;;
46481;SDS011;32193;51.446;6.792;2022-10-16T09:29:51;6.55;;;1.40;;
46481;SDS011;32193;51.446;6.792;2022-10-16T09:32:20;5.90;;;1.85;;
46481;SDS011;32193;51.446;6.792;2022-10-16T09:34:48;4.82;;;1.50;;
46481;SDS011;32193;51.446;6.792;2022-10-16T09:37:17;4.97;;;1.45;;
46481;SDS011;32193;51.446;6.792;2022-10-16T09:39:48;7.25;;;2.22;;
46481;SDS011;32193;51.446;6.792;2022-10-16T09:42:32;6.40;;;1.80;;
46481;SDS011;32193;51.446;6.792;2022-10-16T09:45:01;4.78;;;1.73;;
46481;SDS011;32193;51.446;6.792;2022-10-16T09:47:28;6.35;;;2.03;;
46481;SDS011;32193;51.446;6.792;2022-10-16T09:52:22;7.88;;;1.80;;
46481;SDS011;32193;51.446;6.792;2022-10-16T09:54:52;5.13;;;1.63;;
46481;SDS011;32193;51.446;6.792;2022-10-16T09:57:19;7.80;;;1.90;;
46481;SDS011;32193;51.446;6.792;2022-10-16T09:59:49;7.15;;;1.77;;
46481;SDS011;32193;51.446;6.792;2022-10-16T10:02:16;8.27;;;1.63;;
46481;SDS011;32193;51.446;6.792;2022-10-16T10:04:47;5.25;;;1.20;;
46481;SDS011;32193;51.446;6.792;2022-10-16T10:07:17;7.13;;;1.23;;
46481;SDS011;32193;51.446;6.792;2022-10-16T10:09:46;11.65;;;1.40;;
46481;SDS011;32193;51.446;6.792;2022-10-16T10:12:19;6.68;;;1.80;;
46481;SDS011;32193;51.446;6.792;2022-10-16T10:14:48;8.40;;;1.98;;
46481;SDS011;32193;51.446;6.792;2022-10-16T10:22:22;6.05;;;1.27;;
46481;SDS011;32193;51.446;6.792;2022-10-16T10:30:27;4.05;;;1.08;;
46481;SDS011;32193;51.446;6.792;2022-10-16T10:35:32;5.97;;;1.45;;
46481;SDS011;32193;51.446;6.792;2022-10-16T10:46:03;6.57;;;1.00;;
46481;SDS011;32193;51.446;6.792;2022-10-16T10:51:21;7.57;;;1.00;;
46481;SDS011;32193;51.446;6.792;2022-10-16T11:07:20;7.75;;;1.80;;
46481;SDS011;32193;51.446;6.792;2022-10-16T11:10:02;5.40;;;1.40;;
46481;SDS011;32193;51.446;6.792;2022-10-16T11:12:31;5.20;;;1.10;;
46481;SDS011;32193;51.446;6.792;2022-10-16T11:17:56;10.48;;;1.10;;
46481;SDS011;32193;51.446;6.792;2022-10-16T11:20:24;5.72;;;1.08;;
46481;SDS011;32193;51.446;6.792;2022-10-16T11:22:53;6.10;;;1.30;;
46481;SDS011;32193;51.446;6.792;2022-10-16T11:25:22;6.07;;;0.95;;
46481;SDS011;32193;51.446;6.792;2022-10-16T11:28:14;9.48;;;1.48;;
46481;SDS011;32193;51.446;6.792;2022-10-16T11:33:28;5.85;;;1.15;;
46481;SDS011;32193;51.446;6.792;2022-10-16T11:36:00;5.18;;;0.82;;
46481;SDS011;32193;51.446;6.792;2022-10-16T11:43:50;6.72;;;1.02;;
46481;SDS011;32193;51.446;6.792;2022-10-16T11:46:19;4.38;;;1.00;;
46481;SDS011;32193;51.446;6.792;2022-10-16T11:56:50;5.75;;;0.80;;
46481;SDS011;32193;51.446;6.792;2022-10-16T11:59:21;6.18;;;1.10;;
46481;SDS011;32193;51.446;6.792;2022-10-16T12:01:57;6.05;;;1.33;;
46481;SDS011;32193;51.446;6.792;2022-10-16T12:08:28;4.18;;;0.88;;
46481;SDS011;32193;51.446;6.792;2022-10-16T12:10:29;5.93;;;0.98;;
46481;SDS011;32193;51.446;6.792;2022-10-16T12:12:57;8.80;;;1.55;;
46481;SDS011;32193;51.446;6.792;2022-10-16T12:17:49;4.38;;;1.05;;
46481;SDS011;32193;51.446;6.792;2022-10-16T12:20:20;5.88;;;1.20;;
46481;SDS011;32193;51.446;6.792;2022-10-16T12:22:52;6.57;;;1.15;;
46481;SDS011;32193;51.446;6.792;2022-10-16T12:27:56;5.40;;;1.45;;
46481;SDS011;32193;51.446;6.792;2022-10-16T12:30:29;5.07;;;1.20;;
46481;SDS011;32193;51.446;6.792;2022-10-16T12:32:56;5.20;;;1.20;;
46481;SDS011;32193;51.446;6.792;2022-10-16T12:35:27;6.82;;;1.50;;
46481;SDS011;32193;51.446;6.792;2022-10-16T12:37:54;5.85;;;1.63;;
46481;SDS011;32193;51.446;6.792;2022-10-16T12:40:41;6.47;;;1.20;;
46481;SDS011;32193;51.446;6.792;2022-10-16T12:45:58;6.28;;;1.40;;
46481;SDS011;32193;51.446;6.792;2022-10-16T12:48:25;9.00;;;1.65;;
46481;SDS011;32193;51.446;6.792;2022-10-16T12:50:52;4.63;;;1.55;;
46481;SDS011;32193;51.446;6.792;2022-10-16T12:53:19;5.25;;;1.08;;
46481;SDS011;32193;51.446;6.792;2022-10-16T12:56:04;7.43;;;1.63;;
46481;SDS011;32193;51.446;6.792;2022-10-16T12:58:47;6.70;;;1.50;;
46481;SDS011;32193;51.446;6.792;2022-10-16T13:06:17;7.05;;;2.00;;
46481;SDS011;32193;51.446;6.792;2022-10-16T13:29:31;4.25;;;1.20;;
46481;SDS011;32193;51.446;6.792;2022-10-16T13:31:58;7.40;;;1.40;;
46481;SDS011;32193;51.446;6.792;2022-10-16T13:34:43;8.05;;;1.15;;
46481;SDS011;32193;51.446;6.792;2022-10-16T13:37:17;5.35;;;1.10;;
46481;SDS011;32193;51.446;6.792;2022-10-16T13:39:43;5.32;;;1.40;;
46481;SDS011;32193;51.446;6.792;2022-10-16T13:42:14;5.50;;;1.25;;
46481;SDS011;32193;51.446;6.792;2022-10-16T13:44:48;8.82;;;1.70;;
46481;SDS011;32193;51.446;6.792;2022-10-16T13:47:19;9.30;;;1.48;;
46481;SDS011;32193;51.446;6.792;2022-10-16T13:50:06;6.88;;;1.60;;
46481;SDS011;32193;51.446;6.792;2022-10-16T13:52:38;7.20;;;1.33;;
46481;SDS011;32193;51.446;6.792;2022-10-16T13:55:10;6.40;;;1.17;;
46481;SDS011;32193;51.446;6.792;2022-10-16T13:57:36;8.48;;;1.50;;
46481;SDS011;32193;51.446;6.792;2022-10-16T14:00:02;6.03;;;1.08;;
46481;SDS011;32193;51.446;6.792;2022-10-16T14:02:33;4.38;;;0.93;;
46481;SDS011;32193;51.446;6.792;2022-10-16T14:05:00;5.95;;;1.10;;
46481;SDS011;32193;51.446;6.792;2022-10-16T14:07:28;5.53;;;0.98;;
46481;SDS011;32193;51.446;6.792;2022-10-16T14:09:56;6.20;;;1.17;;
46481;SDS011;32193;51.446;6.792;2022-10-16T14:12:28;8.32;;;1.20;;
46481;SDS011;32193;51.446;6.792;2022-10-16T14:14:54;5.53;;;1.08;;
46481;SDS011;32193;51.446;6.792;2022-10-16T14:19:51;7.57;;;1.30;;
46481;SDS011;32193;51.446;6.792;2022-10-16T14:22:28;6.05;;;1.30;;
46481;SDS011;32193;51.446;6.792;2022-10-16T14:24:54;8.65;;;1.25;;
46481;SDS011;32193;51.446;6.792;2022-10-16T14:27:26;4.40;;;1.35;;
46481;SDS011;32193;51.446;6.792;2022-10-16T14:30:08;8.30;;;1.52;;
46481;SDS011;32193;51.446;6.792;2022-10-16T14:32:52;5.53;;;1.42;;
46481;SDS011;32193;51.446;6.792;2022-10-16T14:37:55;11.82;;;1.50;;
46481;SDS011;32193;51.446;6.792;2022-10-16T14:40:29;4.55;;;1.08;;
46481;SDS011;32193;51.446;6.792;2022-10-16T14:42:56;4.40;;;1.05;;
46481;SDS011;32193;51.446;6.792;2022-10-16T14:45:24;8.05;;;1.08;;
46481;SDS011;32193;51.446;6.792;2022-10-16T14:47:52;8.23;;;1.83;;
46481;SDS011;32193;51.446;6.792;2022-10-16T14:50:19;6.80;;;1.20;;
46481;SDS011;32193;51.446;6.792;2022-10-16T14:52:45;9.23;;;1.58;;
46481;SDS011;32193;51.446;6.792;2022-10-16T14:55:11;6.70;;;1.20;;
46481;SDS011;32193;51.446;6.792;2022-10-16T14:57:37;8.93;;;1.40;;
46481;SDS011;32193;51.446;6.792;2022-10-16T15:00:09;8.10;;;1.48;;
46481;SDS011;32193;51.446;6.792;2022-10-16T15:02:42;9.30;;;1.52;;
46481;SDS011;32193;51.446;6.792;2022-10-16T15:05:15;10.35;;;1.92;;
46481;SDS011;32193;51.446;6.792;2022-10-16T15:07:46;8.25;;;1.70;;
46481;SDS011;32193;51.446;6.792;2022-10-16T15:10:14;8.68;;;1.60;;
46481;SDS011;32193;51.446;6.792;2022-10-16T15:12:40;7.93;;;1.60;;
46481;SDS011;32193;51.446;6.792;2022-10-16T15:15:48;11.77;;;2.25;;
46481;SDS011;32193;51.446;6.792;2022-10-16T15:17:56;6.78;;;1.60;;
46481;SDS011;32193;51.446;6.792;2022-10-16T15:20:26;9.65;;;1.73;;
46481;SDS011;32193;51.446;6.792;2022-10-16T15:22:55;5.10;;;1.70;;
46481;SDS011;32193;51.446;6.792;2022-10-16T15:27:56;7.25;;;1.90;;
46481;SDS011;32193;51.446;6.792;2022-10-16T15:30:22;7.07;;;1.70;;
46481;SDS011;32193;51.446;6.792;2022-10-16T15:32:48;6.53;;;1.80;;
46481;SDS011;32193;51.446;6.792;2022-10-16T15:35:14;10.40;;;2.10;;
46481;SDS011;32193;51.446;6.792;2022-10-16T15:37:40;6.40;;;1.77;;
46481;SDS011;32193;51.446;6.792;2022-10-16T15:40:07;7.95;;;2.28;;
46481;SDS011;32193;51.446;6.792;2022-10-16T15:42:33;9.73;;;2.08;;
46481;SDS011;32193;51.446;6.792;2022-10-16T15:44:59;8.68;;;2.13;;
46481;SDS011;32193;51.446;6.792;2022-10-16T15:47:26;7.10;;;2.00;;
46481;SDS011;32193;51.446;6.792;2022-10-16T15:49:52;6.93;;;2.20;;
46481;SDS011;32193;51.446;6.792;2022-10-16T15:52:18;10.63;;;1.65;;
46481;SDS011;32193;51.446;6.792;2022-10-16T15:54:44;10.55;;;2.25;;
46481;SDS011;32193;51.446;6.792;2022-10-16T15:57:09;8.52;;;2.33;;
46481;SDS011;32193;51.446;6.792;2022-10-16T15:59:35;7.38;;;2.17;;
46481;SDS011;32193;51.446;6.792;2022-10-16T16:02:01;10.85;;;2.60;;
46481;SDS011;32193;51.446;6.792;2022-10-16T16:04:30;9.55;;;2.45;;
46481;SDS011;32193;51.446;6.792;2022-10-16T16:06:56;8.70;;;2.00;;
46481;SDS011;32193;51.446;6.792;2022-10-16T16:09:22;7.20;;;1.67;;
46481;SDS011;32193;51.446;6.792;2022-10-16T16:11:48;11.45;;;2.20;;
46481;SDS011;32193;51.446;6.792;2022-10-16T16:14:16;9.60;;;2.15;;
46481;SDS011;32193;51.446;6.792;2022-10-16T16:16:42;4.95;;;1.50;;
46481;SDS011;32193;51.446;6.792;2022-10-16T16:19:08;9.98;;;3.53;;
46481;SDS011;32193;51.446;6.792;2022-10-16T16:21:34;10.55;;;2.70;;
46481;SDS011;32193;51.446;6.792;2022-10-16T16:24:00;9.02;;;1.88;;
46481;SDS011;32193;51.446;6.792;2022-10-16T16:26:32;7.90;;;1.60;;
46481;SDS011;32193;51.446;6.792;2022-10-16T16:29:01;9.60;;;2.28;;
46481;SDS011;32193;51.446;6.792;2022-10-16T16:31:28;9.52;;;2.30;;
46481;SDS011;32193;51.446;6.792;2022-10-16T16:33:55;6.05;;;1.80;;
46481;SDS011;32193;51.446;6.792;2022-10-16T16:36:22;11.52;;;1.83;;
46481;SDS011;32193;51.446;6.792;2022-10-16T16:38:48;7.85;;;1.83;;
46481;SDS011;32193;51.446;6.792;2022-10-16T16:41:15;14.70;;;1.88;;
46481;SDS011;32193;51.446;6.792;2022-10-16T16:43:42;8.45;;;1.92;;
46481;SDS011;32193;51.446;6.792;2022-10-16T16:46:09;12.77;;;2.47;;
46481;SDS011;32193;51.446;6.792;2022-10-16T16:48:35;11.35;;;2.60;;
46481;SDS011;32193;51.446;6.792;2022-10-16T16:51:08;9.13;;;2.28;;
46481;SDS011;32193;51.446;6.792;2022-10-16T16:53:40;11.32;;;2.78;;
46481;SDS011;32193;51.446;6.792;2022-10-16T16:56:06;9.43;;;2.75;;
46481;SDS011;32193;51.446;6.792;2022-10-16T16:58:32;40.55;;;23.80;;
46481;SDS011;32193;51.446;6.792;2022-10-16T17:00:59;41.13;;;27.73;;
46481;SDS011;32193;51.446;6.792;2022-10-16T17:03:35;89.50;;;30.30;;
46481;SDS011;32193;51.446;6.792;2022-10-16T17:06:05;39.08;;;17.25;;
46481;SDS011;32193;51.446;6.792;2022-10-16T17:08:35;37.92;;;10.35;;
46481;SDS011;32193;51.446;6.792;2022-10-16T17:11:01;12.85;;;4.00;;
46481;SDS011;32193;51.446;6.792;2022-10-16T17:13:29;9.88;;;3.10;;
46481;SDS011;32193;51.446;6.792;2022-10-16T17:15:56;8.57;;;2.47;;
46481;SDS011;32193;51.446;6.792;2022-10-16T17:18:22;9.52;;;2.83;;
46481;SDS011;32193;51.446;6.792;2022-10-16T17:20:49;8.52;;;2.70;;